Weather at Good Shepherd Hospital Heliport

Public forecast

Using degrees Fahrenheit for public forecast. Weather courtesy of forecast.io.

Closest aviation weather report (METAR) to Good Shepherd Hospital Heliport

Report is more than 6 hours old.

Closest report is Hermiston Municipal Airport, 2.4 nm (4.4 km) ESE.

2022/11/14 14:53 (retrieved 2 years ago)

KHRI 141453Z AUTO 19005KT 5SM BR FEW009 BKN031 M03/M04 A3052 RMK AO2 SLP341 T10331044 53010

Closest aviation forecast (TAF) to Good Shepherd Hospital Heliport

Forecast is more than 12 hours old.

Closest forecast is Eastern Oregon Regional Airport at Pendleton, 21.6 nm (40.0 km) ESE.

2023/02/22 18:06 Ammendment (retrieved 1 year ago)

TAF AMD KPDT 221804Z 2218/2318 31010KT 1 1/2SM BR OVC019 TEMPO 2218/2221 1/2SM SN OVC010 FM222200 36011KT 5SM BR OVC019 FM230300 34010KT P6SM SCT030 BKN050 FM230700 29010KT P6SM OVC019 FM231200 31007KT 1 1/2SM -SN OVC015 FM231500 31008KT 1/2SM SN HZ OVC015